Overview Statistics Trail Chart Weather Telemetry Raw packets
 

This is the latest recevied weather packets stored in our database for station/object KW4UJ. If no packets are shown the sender has not sent any weather packets the latest 10 day(s).

<< 38 39 40 41 42 43 44 >>
Time Temp. Humidity Pressure Rain* Wind** Luminosity Snow
1788373254 25° C 87% 1019.3 hPa 7.11 mm - 153 W/m² -
1788372950 26.11° C 78% 1019.3 hPa 0 mm - 113 W/m² -
1788372644 27.22° C 70% 1019.4 hPa 0 mm - 74 W/m² -
1788372343 28.89° C 69% 1019.2 hPa 0 mm - 87 W/m² -
1788372040 31.67° C 64% 1018.9 hPa 0 mm - 54 W/m² -
1788371739 32.22° C 62% 1018.5 hPa 0 mm - 603 W/m² -
1788371436 32.22° C 64% 1018.7 hPa 0 mm - 287 W/m² -
1788371132 32.22° C 62% 1018.9 hPa 0 mm - 188 W/m² -
1788370849 32.78° C 63% 1018.9 hPa 0 mm - 206 W/m² -
1788370527 32.78° C 62% 1018.6 hPa 0 mm - 296 W/m² -
1788370227 32.22° C 63% 1018.7 hPa 0 mm - 377 W/m² -
1788369927 32.22° C 64% 1018.6 hPa 0 mm - 364 W/m² -
1788369622 32.22° C 63% 1018.6 hPa 0 mm - 316 W/m² -
1788369328 32.22° C 62% 1018.6 hPa 0 mm - 183 W/m² -
1788369013 32.78° C 62% 1018.7 hPa 0 mm - 239 W/m² -
1788368708 32.78° C 63% 1018.5 hPa 0 mm - 486 W/m² -
1788368404 33.33° C 62% 1018.3 hPa 0 mm - 554 W/m² -
1788368103 33.33° C 61% 1018.2 hPa 0 mm - 555 W/m² -
1788367803 32.78° C 62% 1018.2 hPa 0 mm - 530 W/m² -
1788367499 32.78° C 64% 1018.5 hPa 0 mm - 531 W/m² -
1788367197 32.22° C 64% 1018.5 hPa 0 mm - 406 W/m² -
1788366894 32.78° C 64% 1018.4 hPa 0 mm - 483 W/m² -
1788366591 32.22° C 65% 1018.5 hPa 0 mm - 505 W/m² -
1788366286 31.67° C 64% 1018.5 hPa 0 mm - 363 W/m² -
1788365986 31.67° C 66% 1018.5 hPa 0 mm - 193 W/m² -

* Rain latest hour (hover to see other rain measurements)
** Current wind speed in m/s (hover to see current wind gust speed)